South Canaan, Connecticut
Current Conditions -  °F | °C
As of 2:54 AM on Friday 19 Dec 2014 (Local Time) from KPSF Reporting Station
Overcast Overcast  
Wind Chill: 18°   Ceiling: 3200
Heat Index: 28°   Visibility: 10mi
Dew Point: 22°   Wind: 12mph
Humidity: 78%   Direction: 300°WNW
Pressure: 29.87"   Gusts: NA
Location:  41.9623°N, 73.3235°W
Report Text: KPSF 190754Z AUTO 30010KT 10SM FEW017 OVC032 M02/M06 A2987 RMK AO2 SLP127 T10221056
Loading
Personal Weather Stations






























Interactive Weather Map New forecast layout! Learn more

10-Day Weather Forecast

Advertisements
Track Severe Weather on mobile